Time;durP1;ratioP1;P1;durP2;ratioP2;P2;SDS_P1;SDS_P2;PMS_P1;PMS_P2;Temp;Humidity;BMP_temperature;BMP_pressure;BME280_temperature;BME280_humidity;BME280_pressure;Samples;Min_cycle;Max_cycle;Signal;HPM_P1;HPM_P2
2022/08/22 00:02:22;;;;;;;12.75;3.55;;;14.90;99.90;;;;;;6125164;23;20022;-78
2022/08/22 00:05:29;;;;;;;14.05;3.22;;;14.90;99.90;;;;;;6077979;23;20022;-79
2022/08/22 00:08:16;;;;;;;11.57;3.20;;;14.90;99.90;;;;;;6214544;23;20026;-79
2022/08/22 00:10:53;;;;;;;11.18;3.60;;;14.90;99.90;;;;;;6219446;23;20026;-78
2022/08/22 00:13:37;;;;;;;10.05;3.25;;;14.90;99.90;;;;;;6220051;23;20023;-78
2022/08/22 00:16:28;;;;;;;10.73;3.70;;;14.90;99.90;;;;;;6220468;23;20024;-78
2022/08/22 00:19:11;;;;;;;10.75;3.20;;;14.90;99.90;;;;;;6219998;23;20016;-78
2022/08/22 00:22:12;;;;;;;14.15;3.80;;;14.80;99.90;;;;;;6246609;23;20055;-79
2022/08/22 00:25:11;;;;;;;13.25;3.60;;;14.80;99.90;;;;;;6219305;23;20074;-79
2022/08/22 00:27:52;;;;;;;15.13;3.65;;;14.80;99.90;;;;;;6194828;23;20502;-79
2022/08/22 00:30:18;;;;;;;10.77;3.70;;;14.80;99.90;;;;;;6220269;23;20070;-79
2022/08/22 00:33:07;;;;;;;13.20;3.40;;;14.70;99.90;;;;;;6218913;23;20012;-79
2022/08/22 00:35:41;;;;;;;6.68;3.10;;;14.80;99.90;;;;;;6194725;23;20024;-79
2022/08/22 00:38:26;;;;;;;10.57;4.20;;;14.80;99.90;;;;;;6218809;23;20403;-79
2022/08/22 00:41:04;;;;;;;10.00;3.60;;;14.70;99.90;;;;;;6220240;23;20348;-79
2022/08/22 00:44:01;;;;;;;14.15;3.90;;;14.70;99.90;;;;;;6219663;23;20024;-79
2022/08/22 00:46:52;;;;;;;15.57;4.40;;;14.70;99.90;;;;;;6219059;23;20012;-79
2022/08/22 00:49:56;;;;;;;11.93;3.50;;;14.70;99.90;;;;;;6219934;23;20024;-79
2022/08/22 00:52:34;;;;;;;9.25;3.60;;;14.70;99.90;;;;;;6243971;23;20354;-79
2022/08/22 00:55:34;;;;;;;8.18;3.55;;;14.60;99.90;;;;;;6246872;23;20012;-79
2022/08/22 00:58:13;;;;;;;9.55;3.92;;;14.60;99.90;;;;;;6177984;23;20016;-78
2022/08/22 01:00:54;;;;;;;13.27;4.07;;;14.60;99.90;;;;;;6218741;23;20020;-79
2022/08/22 01:03:26;;;;;;;5.03;3.20;;;14.60;99.90;;;;;;6219752;23;20436;-79
2022/08/22 01:06:17;;;;;;;10.77;4.55;;;14.60;99.90;;;;;;6245271;23;20016;-79
2022/08/22 01:09:14;;;;;;;12.90;3.33;;;14.60;99.90;;;;;;6219871;23;20023;-79
2022/08/22 01:11:58;;;;;;;12.32;3.72;;;14.60;99.90;;;;;;6219466;23;20024;-79
2022/08/22 01:14:39;;;;;;;9.30;3.63;;;14.60;99.90;;;;;;6218930;23;20019;-79
2022/08/22 01:17:24;;;;;;;10.35;3.92;;;14.60;99.90;;;;;;6246573;23;20215;-79
2022/08/22 01:19:58;;;;;;;9.30;3.53;;;14.50;99.90;;;;;;6245432;23;20079;-79
2022/08/22 01:22:42;;;;;;;10.73;3.65;;;14.50;99.90;;;;;;6219211;23;20032;-79
2022/08/22 01:25:50;;;;;;;9.98;3.40;;;14.50;99.90;;;;;;6246362;23;20027;-79
2022/08/22 01:28:37;;;;;;;8.98;2.67;;;14.50;99.90;;;;;;6176234;23;20012;-79
2022/08/22 01:31:27;;;;;;;9.70;3.47;;;14.50;99.90;;;;;;6246420;23;20020;-79
2022/08/22 01:34:41;;;;;;;7.47;3.80;;;14.40;99.90;;;;;;6193001;23;20059;-79
2022/08/22 01:37:24;;;;;;;12.35;4.20;;;14.30;99.90;;;;;;6217875;23;20047;-79
2022/08/22 01:40:20;;;;;;;8.00;4.10;;;14.30;99.90;;;;;;6219625;23;20023;-79
2022/08/22 01:43:08;;;;;;;7.50;2.97;;;14.20;99.90;;;;;;6218312;23;20027;-79
2022/08/22 01:45:52;;;;;;;8.05;3.35;;;14.20;99.90;;;;;;6219420;23;20020;-79
2022/08/22 01:48:44;;;;;;;8.15;3.22;;;14.20;99.90;;;;;;6193141;23;20448;-79
2022/08/22 01:51:23;;;;;;;9.75;3.47;;;14.10;99.90;;;;;;6218637;23;20117;-79
2022/08/22 01:53:56;;;;;;;10.82;3.00;;;14.20;99.90;;;;;;6246344;23;20138;-79
2022/08/22 01:56:24;;;;;;;10.55;3.70;;;14.10;99.90;;;;;;6218620;23;20012;-79
2022/08/22 01:59:04;;;;;;;11.25;3.35;;;14.10;99.90;;;;;;6219517;23;20090;-78
2022/08/22 02:01:45;;;;;;;10.98;4.00;;;14.10;99.90;;;;;;6219192;23;20016;-78
2022/08/22 02:04:27;;;;;;;8.75;3.65;;;14.00;99.90;;;;;;6245251;23;20475;-78
2022/08/22 02:07:20;;;;;;;10.07;4.15;;;14.00;99.90;;;;;;6244778;23;20012;-79
2022/08/22 02:10:04;;;;;;;11.32;3.50;;;13.90;99.90;;;;;;6217656;23;20016;-78
2022/08/22 02:13:11;;;;;;;12.15;4.30;;;13.90;99.90;;;;;;6245809;23;20437;-78
2022/08/22 02:15:39;;;;;;;9.35;3.10;;;13.90;99.90;;;;;;6182927;23;20016;-78
2022/08/22 02:18:05;;;;;;;9.25;4.00;;;13.80;99.90;;;;;;6247299;23;20017;-79
2022/08/22 02:20:46;;;;;;;12.85;4.25;;;13.80;99.90;;;;;;6221563;23;20395;-79
2022/08/22 02:23:31;;;;;;;4.80;1.73;;;13.80;99.90;;;;;;6245506;23;20020;-79
2022/08/22 02:26:00;;;;;;;5.22;3.25;;;13.80;99.90;;;;;;6221497;23;20091;-78
2022/08/22 02:28:51;;;;;;;9.23;3.65;;;13.80;99.90;;;;;;6220984;23;20436;-79
2022/08/22 02:31:35;;;;;;;8.48;3.33;;;13.70;99.90;;;;;;6247208;23;20444;-79
2022/08/22 02:34:15;;;;;;;4.13;1.77;;;13.70;99.90;;;;;;6221001;23;20016;-79
2022/08/22 02:37:04;;;;;;;5.20;2.60;;;13.60;99.90;;;;;;6221011;23;20070;-79
2022/08/22 02:39:48;;;;;;;6.70;2.38;;;13.60;99.90;;;;;;6220074;23;20020;-78
2022/08/22 02:42:23;;;;;;;7.95;3.13;;;13.60;99.90;;;;;;6247518;23;20035;-79
2022/08/22 02:45:37;;;;;;;5.00;2.90;;;13.60;99.90;;;;;;6219212;23;20052;-79
2022/08/22 02:48:33;;;;;;;15.70;3.95;;;13.50;99.90;;;;;;6221682;23;20017;-79
2022/08/22 02:51:02;;;;;;;7.03;3.00;;;13.50;99.90;;;;;;6220794;23;20052;-79
2022/08/22 02:54:00;;;;;;;9.48;2.97;;;13.50;99.90;;;;;;6220202;23;20016;-79
2022/08/22 02:56:56;;;;;;;8.30;2.72;;;13.50;99.90;;;;;;6213855;23;20470;-79
2022/08/22 02:59:31;;;;;;;4.47;2.10;;;13.40;99.90;;;;;;6219829;23;20012;-79
2022/08/22 03:02:17;;;;;;;7.47;2.70;;;13.40;99.90;;;;;;6248022;23;20012;-79
2022/08/22 03:04:49;;;;;;;8.27;3.30;;;13.40;99.90;;;;;;6220333;23;20070;-79
2022/08/22 03:07:33;;;;;;;8.30;3.25;;;13.40;99.90;;;;;;6220110;23;20043;-79
2022/08/22 03:10:25;;;;;;;8.25;3.63;;;13.40;99.90;;;;;;6246328;23;20027;-79
2022/08/22 03:12:58;;;;;;;10.18;3.67;;;13.40;99.90;;;;;;6246009;23;20046;-79
2022/08/22 03:15:26;;;;;;;7.30;4.13;;;13.30;99.90;;;;;;6220498;23;20585;-79
2022/08/22 03:18:15;;;;;;;11.32;3.92;;;13.30;99.90;;;;;;6247592;23;20019;-79
2022/08/22 03:20:43;;;;;;;6.47;2.88;;;13.30;99.90;;;;;;6247231;23;20337;-79
2022/08/22 03:23:21;;;;;;;9.98;4.63;;;13.30;99.90;;;;;;6220153;23;20020;-79
2022/08/22 03:26:10;;;;;;;9.15;3.80;;;13.30;99.90;;;;;;6247623;23;20082;-79
2022/08/22 03:29:02;;;;;;;7.28;4.00;;;13.30;99.90;;;;;;6219752;23;20008;-79
2022/08/22 03:31:30;;;;;;;9.82;3.88;;;13.20;99.90;;;;;;6219663;23;20016;-79
2022/08/22 03:34:20;;;;;;;9.27;3.50;;;13.20;99.90;;;;;;6246628;23;20021;-79
2022/08/22 03:37:11;;;;;;;5.40;2.97;;;13.20;99.90;;;;;;6247133;23;20015;-79
2022/08/22 03:39:53;;;;;;;8.68;3.30;;;13.10;99.90;;;;;;6220734;23;20017;-79
2022/08/22 03:42:37;;;;;;;5.70;3.50;;;13.10;99.90;;;;;;6246375;23;20015;-79
2022/08/22 03:45:21;;;;;;;7.72;3.65;;;13.10;99.90;;;;;;6220241;23;20062;-79
2022/08/22 03:48:05;;;;;;;5.45;4.35;;;13.10;99.90;;;;;;6246680;23;20329;-79
2022/08/22 03:50:55;;;;;;;6.77;4.63;;;13.00;99.90;;;;;;6245600;23;20024;-79
2022/08/22 03:53:49;;;;;;;11.70;4.97;;;13.00;99.90;;;;;;6247806;23;20020;-79
2022/08/22 03:57:06;;;;;;;12.00;5.63;;;13.00;99.90;;;;;;6219541;23;20012;-79
2022/08/22 04:00:06;;;;;;;8.75;3.70;;;13.10;99.90;;;;;;6182745;23;20317;-79
2022/08/22 04:03:04;;;;;;;7.07;4.20;;;13.10;99.90;;;;;;6194266;23;20065;-79
2022/08/22 04:05:39;;;;;;;11.82;5.28;;;13.10;99.90;;;;;;6219975;23;20389;-79
2022/08/22 04:08:36;;;;;;;15.07;5.78;;;13.00;99.90;;;;;;6247626;23;20314;-79
2022/08/22 04:11:21;;;;;;;7.43;3.92;;;13.10;99.90;;;;;;6247314;23;20016;-79
2022/08/22 04:14:12;;;;;;;7.22;3.55;;;13.00;99.90;;;;;;6220431;23;20089;-79
2022/08/22 04:16:48;;;;;;;8.50;3.25;;;13.00;99.90;;;;;;6244341;23;20051;-79
2022/08/22 04:19:33;;;;;;;17.25;3.20;;;13.00;99.90;;;;;;6247256;23;20018;-79
2022/08/22 04:22:27;;;;;;;8.20;3.28;;;12.90;99.90;;;;;;6220397;23;20348;-79
2022/08/22 04:25:18;;;;;;;12.52;2.92;;;12.80;99.90;;;;;;6218542;23;20452;-79
2022/08/22 04:28:01;;;;;;;12.70;2.75;;;12.80;99.90;;;;;;6247019;23;20092;-79
2022/08/22 04:30:37;;;;;;;6.72;2.85;;;12.80;99.90;;;;;;6218619;23;20470;-79
2022/08/22 04:33:32;;;;;;;8.48;3.03;;;12.80;99.90;;;;;;6247466;23;20012;-80
2022/08/22 04:36:21;;;;;;;6.75;3.30;;;12.70;99.90;;;;;;6219905;23;20035;-80
2022/08/22 04:38:55;;;;;;;5.97;3.15;;;12.70;99.90;;;;;;6193879;23;20023;-79
2022/08/22 04:41:40;;;;;;;6.20;3.22;;;12.60;99.90;;;;;;6246910;23;20083;-79
2022/08/22 04:44:15;;;;;;;8.77;3.28;;;12.60;99.90;;;;;;6246266;23;20043;-79
2022/08/22 04:46:44;;;;;;;;;;;12.60;99.90;;;;;;6194657;23;20020;-79
2022/08/22 04:49:10;;;;;;;5.93;2.92;;;12.60;99.90;;;;;;6219982;23;19998;-79
2022/08/22 04:51:48;;;;;;;7.03;2.92;;;12.60;99.90;;;;;;6245763;23;20092;-79
2022/08/22 04:54:39;;;;;;;9.15;3.35;;;12.60;99.90;;;;;;6247187;23;20011;-79
2022/08/22 04:57:14;;;;;;;5.43;3.28;;;12.70;99.90;;;;;;6219779;23;20020;-79
2022/08/22 04:59:42;;;;;;;6.75;3.00;;;12.70;99.90;;;;;;6244968;23;20087;-79
2022/08/22 05:02:19;;;;;;;13.13;3.40;;;12.70;99.90;;;;;;6247107;23;20016;-79
2022/08/22 05:04:53;;;;;;;9.38;2.90;;;12.70;99.90;;;;;;6219845;23;20023;-79
2022/08/22 05:07:27;;;;;;;5.65;2.90;;;12.70;99.90;;;;;;6247195;23;20012;-79
2022/08/22 05:10:16;;;;;;;5.20;3.55;;;12.70;99.90;;;;;;6194478;23;20154;-78
2022/08/22 05:13:05;;;;;;;5.13;2.85;;;12.80;99.90;;;;;;6218609;23;20012;-79
2022/08/22 05:15:35;;;;;;;7.65;3.28;;;12.80;99.90;;;;;;6193925;23;20042;-79
2022/08/22 05:18:10;;;;;;;11.65;3.55;;;12.70;99.90;;;;;;6219914;23;20016;-79
2022/08/22 05:20:39;;;;;;;6.35;3.60;;;12.80;99.90;;;;;;6245591;23;20314;-79
2022/08/22 05:23:17;;;;;;;8.20;3.45;;;12.80;99.90;;;;;;6216905;23;20023;-79
2022/08/22 05:25:47;;;;;;;9.20;3.47;;;12.80;99.90;;;;;;6245985;23;20027;-80
2022/08/22 05:28:36;;;;;;;8.70;3.30;;;12.90;99.90;;;;;;6218762;23;20012;-78
2022/08/22 05:31:07;;;;;;;12.20;3.20;;;12.90;99.90;;;;;;6219635;23;20020;-79
2022/08/22 05:33:44;;;;;;;8.07;2.72;;;12.90;99.90;;;;;;6245477;23;20471;-79
2022/08/22 05:36:21;;;;;;;7.25;2.88;;;13.00;99.90;;;;;;6219661;23;20042;-79
2022/08/22 05:39:06;;;;;;;8.75;3.35;;;13.00;99.90;;;;;;6218395;23;20012;-79
2022/08/22 05:41:37;;;;;;;8.32;3.53;;;13.10;99.90;;;;;;6218782;23;20020;-79
2022/08/22 05:44:12;;;;;;;9.32;3.97;;;13.10;99.90;;;;;;6219102;23;20482;-80
2022/08/22 05:46:55;;;;;;;8.93;3.72;;;13.20;99.90;;;;;;6219239;23;20024;-82
2022/08/22 05:49:43;;;;;;;4.97;3.90;;;13.20;99.90;;;;;;6218204;23;20028;-81
2022/08/22 05:52:37;;;;;;;10.95;4.90;;;13.30;99.90;;;;;;6245591;23;20014;-82
2022/08/22 05:55:28;;;;;;;10.95;3.97;;;13.40;99.90;;;;;;6245413;23;20099;-82
2022/08/22 05:58:21;;;;;;;10.80;5.07;;;13.50;99.90;;;;;;6245840;23;20383;-81
2022/08/22 06:00:55;;;;;;;6.93;3.75;;;13.50;99.90;;;;;;6244790;23;20020;-81
2022/08/22 06:03:37;;;;;;;8.95;3.38;;;13.60;99.90;;;;;;6217619;23;20078;-81
2022/08/22 06:06:13;;;;;;;5.60;3.55;;;13.60;99.90;;;;;;6194511;23;20103;-80
2022/08/22 06:08:43;;;;;;;8.80;3.40;;;13.70;99.90;;;;;;6243958;23;20314;-80
2022/08/22 06:11:32;;;;;;;9.88;3.47;;;13.70;99.90;;;;;;6246260;23;20019;-80
2022/08/22 06:14:44;;;;;;;5.13;3.20;;;13.80;99.90;;;;;;6219067;23;20020;-80
2022/08/22 06:17:35;;;;;;;8.60;4.88;;;13.90;99.90;;;;;;6188094;23;20016;-80
2022/08/22 06:20:04;;;;;;;5.25;3.28;;;14.00;99.90;;;;;;6219048;23;20020;-80
2022/08/22 06:22:35;;;;;;;10.05;3.42;;;14.10;99.90;;;;;;6217628;23;20343;-81
2022/08/22 06:25:18;;;;;;;10.20;3.20;;;14.20;99.90;;;;;;6218701;23;20020;-80
2022/08/22 06:27:47;;;;;;;7.40;3.92;;;14.30;99.90;;;;;;6218486;23;20053;-79
2022/08/22 06:30:15;;;;;;;9.05;4.00;;;14.40;99.90;;;;;;6245092;23;20408;-79
2022/08/22 06:32:45;;;;;;;6.97;3.65;;;14.50;99.90;;;;;;6246485;23;20020;-79
2022/08/22 06:35:27;;;;;;;8.32;3.70;;;14.60;99.90;;;;;;6245660;23;20021;-78
2022/08/22 06:37:58;;;;;;;9.50;4.03;;;14.70;99.90;;;;;;6245340;23;20016;-78
2022/08/22 06:40:26;;;;;;;8.52;3.60;;;14.80;99.90;;;;;;6218735;23;20016;-78
2022/08/22 06:42:54;;;;;;;9.88;3.88;;;14.90;99.90;;;;;;6218979;23;20084;-78
2022/08/22 06:45:31;;;;;;;7.13;3.40;;;15.00;99.90;;;;;;6217880;23;20028;-80
2022/08/22 06:48:12;;;;;;;13.77;6.20;;;15.00;99.90;;;;;;6219350;23;20078;-80
2022/08/22 06:50:42;;;;;;;13.27;6.80;;;15.10;99.90;;;;;;6216707;23;20846;-80
2022/08/22 06:53:35;;;;;;;14.98;7.22;;;15.30;99.90;;;;;;6219003;23;20023;-79
2022/08/22 06:56:04;;;;;;;15.27;6.57;;;15.40;99.90;;;;;;6218726;23;20380;-79
2022/08/22 06:58:43;;;;;;;12.93;4.85;;;15.50;99.90;;;;;;6217748;23;20456;-79
2022/08/22 07:01:15;;;;;;;9.65;4.53;;;15.60;99.90;;;;;;6218804;23;20379;-79
2022/08/22 07:03:48;;;;;;;9.95;4.75;;;15.70;99.90;;;;;;6221170;23;20012;-79
2022/08/22 07:06:18;;;;;;;14.63;5.38;;;15.80;99.90;;;;;;6246491;23;20015;-79
2022/08/22 07:08:44;;;;;;;10.52;5.90;;;15.80;99.90;;;;;;6221050;23;20012;-80
2022/08/22 07:11:17;;;;;;;13.88;6.45;;;15.90;99.90;;;;;;6247288;23;20112;-79
2022/08/22 07:13:50;;;;;;;16.05;6.95;;;16.00;99.90;;;;;;6246918;23;20016;-80
2022/08/22 07:16:29;;;;;;;12.57;6.80;;;16.10;99.90;;;;;;6220620;23;20390;-80
2022/08/22 07:18:58;;;;;;;13.25;6.20;;;16.20;99.90;;;;;;6220601;23;20016;-79
2022/08/22 07:21:28;;;;;;;12.38;5.22;;;16.30;99.90;;;;;;6219541;23;20086;-80
2022/08/22 07:23:57;;;;;;;13.73;6.63;;;16.30;99.90;;;;;;6247013;23;20020;-79
2022/08/22 07:26:37;;;;;;;15.95;6.88;;;16.40;99.90;;;;;;6219935;23;20024;-79
2022/08/22 07:29:26;;;;;;;15.50;6.70;;;16.50;99.90;;;;;;6220169;23;20382;-79
2022/08/22 07:32:05;;;;;;;18.02;6.63;;;16.60;99.90;;;;;;6247635;23;20020;-80
2022/08/22 07:34:47;;;;;;;17.10;7.32;;;16.60;99.90;;;;;;6219917;23;20075;-80
2022/08/22 07:37:45;;;;;;;16.63;7.60;;;16.70;99.90;;;;;;6246846;23;20020;-80
2022/08/22 07:40:28;;;;;;;14.80;6.68;;;16.80;99.90;;;;;;6199034;23;20443;-79
2022/08/22 07:43:22;;;;;;;12.35;7.35;;;16.80;99.90;;;;;;6220744;23;20020;-80
2022/08/22 07:45:57;;;;;;;16.45;7.28;;;16.90;99.90;;;;;;6220003;23;20025;-79
2022/08/22 07:48:32;;;;;;;16.83;8.90;;;17.00;99.90;;;;;;6246044;23;20016;-80
2022/08/22 07:51:12;;;;;;;23.60;7.15;;;17.10;99.90;;;;;;6220924;23;20079;-79
2022/08/22 07:53:42;;;;;;;16.35;7.78;;;17.20;99.90;;;;;;6245692;23;20023;-81
2022/08/22 07:56:21;;;;;;;18.60;7.32;;;17.20;99.90;;;;;;6247378;23;20054;-81
2022/08/22 07:58:52;;;;;;;16.90;6.72;;;17.30;99.90;;;;;;6246073;23;20055;-81
2022/08/22 08:01:20;;;;;;;20.60;7.13;;;17.40;99.90;;;;;;6218910;23;20094;-80
2022/08/22 08:03:53;;;;;;;21.50;8.32;;;17.40;99.90;;;;;;6246678;23;20048;-81
2022/08/22 08:06:25;;;;;;;16.30;7.93;;;17.50;99.90;;;;;;6248013;23;20074;-81
2022/08/22 08:08:52;;;;;;;14.50;7.40;;;17.50;99.90;;;;;;6246174;23;20313;-80
2022/08/22 08:11:19;;;;;;;16.65;7.35;;;17.60;99.90;;;;;;6247374;23;20055;-80
2022/08/22 08:13:51;;;;;;;17.70;8.07;;;17.70;99.90;;;;;;6246080;23;20082;-81
2022/08/22 08:16:22;;;;;;;15.55;7.43;;;17.70;99.90;;;;;;6246584;23;20066;-81
2022/08/22 08:18:51;;;;;;;13.13;6.60;;;17.90;99.90;;;;;;6245874;23;20441;-80
2022/08/22 08:21:32;;;;;;;11.38;6.55;;;18.00;99.90;;;;;;6246668;23;20020;-82
2022/08/22 08:24:00;;;;;;;14.82;5.60;;;18.10;99.90;;;;;;6218374;23;20091;-80
2022/08/22 08:28:32;;;;;;;17.27;5.30;;;18.20;99.90;;;;;;6246575;23;20026;-81
2022/08/22 08:29:24;;;;;;;12.73;4.90;;;18.30;99.90;;;;;;6218797;23;20017;-81
2022/08/22 08:31:51;;;;;;;15.40;5.32;;;18.40;99.90;;;;;;6247386;23;20376;-81
2022/08/22 08:34:22;;;;;;;16.48;4.85;;;18.40;99.90;;;;;;6219412;23;20031;-81
2022/08/22 08:37:05;;;;;;;15.50;4.70;;;18.50;99.90;;;;;;6219456;23;20035;-81
2022/08/22 08:39:40;;;;;;;12.60;4.65;;;18.60;99.90;;;;;;6220675;23;20027;-81
2022/08/22 08:43:25;;;;;;;16.48;4.90;;;18.70;99.90;;;;;;6246834;23;20013;-81
2022/08/22 08:46:09;;;;;;;16.17;4.57;;;18.80;99.90;;;;;;6246400;23;20047;-81
2022/08/22 08:48:50;;;;;;;17.27;4.80;;;18.90;99.90;;;;;;6100299;23;20021;-81
2022/08/22 08:52:15;;;;;;;14.35;3.95;;;18.90;99.90;;;;;;6123035;23;20089;-80
2022/08/22 08:55:06;;;;;;;18.77;4.25;;;19.10;99.90;;;;;;6151248;23;20013;-80
2022/08/22 08:57:49;;;;;;;11.02;3.90;;;19.20;99.90;;;;;;6152730;23;20048;-81
2022/08/22 09:00:24;;;;;;;14.90;4.60;;;19.20;99.90;;;;;;6186586;23;20020;-82
2022/08/22 09:03:04;;;;;;;13.43;4.10;;;19.30;99.90;;;;;;6219686;23;20380;-81
2022/08/22 09:06:07;;;;;;;16.38;3.80;;;19.40;99.90;;;;;;6218887;23;20020;-81
2022/08/22 09:08:53;;;;;;;15.82;4.47;;;19.40;99.90;;;;;;6246386;23;20463;-82
2022/08/22 09:11:49;;;;;;;14.55;5.57;;;19.50;99.90;;;;;;6245660;23;20392;-82
2022/08/22 09:14:48;;;;;;;17.63;4.88;;;19.60;99.90;;;;;;6219200;23;20016;-81
2022/08/22 09:17:35;;;;;;;10.63;4.20;;;19.70;99.90;;;;;;6194323;23;20070;-81
2022/08/22 09:20:20;;;;;;;12.57;5.15;;;19.80;99.90;;;;;;6243717;23;20103;-81
2022/08/22 09:23:24;;;;;;;19.77;6.03;;;19.90;99.90;;;;;;6219072;23;20091;-82
2022/08/22 09:26:08;;;;;;;14.70;5.57;;;19.90;99.90;;;;;;6243281;23;20100;-82
2022/08/22 09:28:37;;;;;;;17.08;8.75;;;19.90;99.90;;;;;;6218743;23;20016;-83
2022/08/22 09:31:26;;;;;;;14.32;6.40;;;20.00;99.90;;;;;;6246375;23;20016;-83
2022/08/22 09:34:11;;;;;;;14.77;3.95;;;20.10;99.90;;;;;;6218677;23;20327;-82
2022/08/22 09:37:12;;;;;;;16.50;4.30;;;20.10;99.90;;;;;;6219687;23;20098;-82
2022/08/22 09:39:49;;;;;;;13.40;3.47;;;20.20;99.90;;;;;;6243163;23;20021;-83
2022/08/22 09:42:34;;;;;;;14.45;3.80;;;20.20;99.90;;;;;;6246314;23;20031;-82
2022/08/22 09:45:33;;;;;;;10.55;2.95;;;20.20;99.90;;;;;;6245454;23;20020;-81
2022/08/22 09:48:00;;;;;;;14.98;3.55;;;20.20;99.90;;;;;;6244294;23;20440;-82
2022/08/22 09:50:41;;;;;;;10.75;2.90;;;20.20;99.90;;;;;;6246667;23;20012;-81
2022/08/22 09:53:24;;;;;;;10.98;3.20;;;20.30;99.90;;;;;;6219249;23;20050;-81
2022/08/22 09:56:02;;;;;;;13.43;3.83;;;20.40;99.90;;;;;;6246551;23;20012;-82
2022/08/22 09:59:01;;;;;;;12.90;2.97;;;20.40;99.90;;;;;;6246743;23;20016;-81
2022/08/22 10:01:47;;;;;;;5.35;1.85;;;20.60;99.90;;;;;;6218159;23;20012;-81
2022/08/22 10:04:35;;;;;;;11.80;2.70;;;20.60;99.90;;;;;;6224510;23;20023;-81
2022/08/22 10:07:32;;;;;;;8.65;2.30;;;20.60;99.90;;;;;;6218174;23;20020;-80
2022/08/22 10:10:34;;;;;;;6.55;1.77;;;20.70;99.90;;;;;;6246609;23;20012;-80
2022/08/22 10:13:31;;;;;;;12.07;2.20;;;20.70;99.90;;;;;;6246655;23;20023;-81
2022/08/22 10:16:13;;;;;;;16.35;2.70;;;20.80;99.90;;;;;;6192902;23;20020;-82
2022/08/22 10:19:03;;;;;;;6.30;2.13;;;20.90;99.90;;;;;;6219444;23;20344;-81
2022/08/22 10:21:48;;;;;;;10.43;3.33;;;20.90;99.90;;;;;;6217774;23;20020;-82
2022/08/22 10:24:42;;;;;;;7.15;2.08;;;20.90;99.90;;;;;;6245070;23;20379;-81
2022/08/22 10:27:15;;;;;;;8.43;2.45;;;21.00;99.90;;;;;;6246174;23;20016;-81
2022/08/22 10:29:52;;;;;;;11.98;2.88;;;21.10;99.90;;;;;;6193096;23;20088;-81
2022/08/22 10:32:46;;;;;;;12.63;2.88;;;21.20;99.90;;;;;;6245635;23;20016;-80
2022/08/22 10:35:20;;;;;;;11.80;2.30;;;21.30;99.90;;;;;;6219220;23;20016;-80
2022/08/22 10:37:58;;;;;;;11.57;2.38;;;21.40;99.90;;;;;;6246407;23;20051;-80
2022/08/22 10:40:31;;;;;;;10.07;2.60;;;21.50;99.90;;;;;;6220556;23;20049;-81
2022/08/22 10:43:16;;;;;;;9.90;2.67;;;21.50;99.90;;;;;;6220090;23;20471;-81
2022/08/22 10:45:51;;;;;;;8.93;2.30;;;21.50;99.90;;;;;;6220377;23;20099;-81
2022/08/22 10:48:31;;;;;;;9.90;2.15;;;21.60;99.90;;;;;;6247888;23;20023;-81
2022/08/22 10:51:21;;;;;;;10.25;2.33;;;21.70;99.90;;;;;;6246038;23;20027;-83
2022/08/22 10:54:13;;;;;;;8.15;2.05;;;21.90;99.90;;;;;;6248314;23;20019;-81
2022/08/22 10:56:59;;;;;;;11.73;2.85;;;22.00;99.90;;;;;;6247012;23;20070;-81
2022/08/22 10:59:45;;;;;;;9.88;2.10;;;22.20;99.90;;;;;;6247672;23;20012;-81
2022/08/22 11:02:29;;;;;;;11.60;2.28;;;22.20;99.90;;;;;;6219721;23;20020;-78
2022/08/22 11:05:17;;;;;;;5.90;2.10;;;22.20;99.90;;;;;;6245386;23;20098;-79
2022/08/22 11:07:45;;;;;;;9.13;3.22;;;22.10;99.90;;;;;;6247791;23;20016;-79
2022/08/22 11:10:43;;;;;;;8.20;2.35;;;22.10;99.90;;;;;;6248083;23;20016;-80
2022/08/22 11:13:15;;;;;;;12.52;2.30;;;22.10;99.90;;;;;;6247862;23;20016;-79
2022/08/22 11:15:51;;;;;;;7.82;2.65;;;22.10;99.90;;;;;;6247955;23;20020;-80
2022/08/22 11:18:58;;;;;;;7.00;1.98;;;22.10;99.90;;;;;;6219589;23;20027;-78
2022/08/22 11:21:42;;;;;;;13.48;3.70;;;22.10;99.90;;;;;;6248185;23;20012;-79
2022/08/22 11:24:08;;;;;;;10.35;2.42;;;22.10;99.90;;;;;;6195534;23;20052;-79
2022/08/22 11:26:40;;;;;;;13.20;2.72;;;22.00;99.90;;;;;;6219872;23;20353;-79
2022/08/22 11:29:44;;;;;;;5.55;2.10;;;22.00;99.90;;;;;;6220839;23;20020;-79
2022/08/22 11:32:32;;;;;;;10.70;2.07;;;22.10;99.90;;;;;;6123966;23;20026;-79
2022/08/22 11:35:21;;;;;;;10.02;1.85;;;22.20;99.90;;;;;;6101148;23;20018;-80
2022/08/22 11:38:07;;;;;;;8.57;1.90;;;22.40;99.90;;;;;;6220326;23;20452;-78
2022/08/22 11:40:44;;;;;;;9.48;2.22;;;22.50;99.90;;;;;;6246423;23;20020;-80
2022/08/22 11:43:29;;;;;;;5.80;2.10;;;22.60;99.90;;;;;;6247993;23;20395;-81
2022/08/22 11:45:58;;;;;;;6.90;2.35;;;22.70;99.90;;;;;;6246891;23;20043;-81
2022/08/22 11:48:40;;;;;;;10.63;2.17;;;22.70;99.90;;;;;;6245517;23;20348;-80
2022/08/22 11:51:23;;;;;;;7.28;2.10;;;22.70;99.90;;;;;;6220771;23;20042;-81
2022/08/22 11:54:09;;;;;;;5.57;1.90;;;22.70;99.90;;;;;;6194780;23;20101;-80
2022/08/22 11:56:43;;;;;;;9.25;2.60;;;22.80;99.90;;;;;;6219993;23;20056;-81
2022/08/22 11:59:30;;;;;;;8.48;2.50;;;22.80;99.90;;;;;;6247857;23;20063;-81
2022/08/22 12:02:00;;;;;;;8.95;1.90;;;22.80;99.90;;;;;;6219153;23;20020;-80
2022/08/22 12:04:38;;;;;;;6.53;2.40;;;22.80;99.90;;;;;;6247698;23;20339;-79
2022/08/22 12:07:36;;;;;;;10.98;1.90;;;22.80;99.90;;;;;;6219969;23;20074;-81
2022/08/22 12:10:10;;;;;;;11.90;2.28;;;22.80;99.90;;;;;;6241113;23;20027;-81
2022/08/22 12:13:01;;;;;;;11.20;2.28;;;22.90;99.90;;;;;;6220583;23;20093;-81
2022/08/22 12:15:50;;;;;;;13.75;2.30;;;23.00;99.90;;;;;;6246781;23;20013;-81
2022/08/22 12:18:27;;;;;;;6.50;2.60;;;23.00;99.90;;;;;;6220469;23;20082;-81
2022/08/22 12:21:31;;;;;;;7.32;2.22;;;23.10;99.90;;;;;;6219751;23;20408;-78
2022/08/22 12:24:15;;;;;;;8.50;2.05;;;23.20;99.90;;;;;;6246964;23;20027;-80
2022/08/22 12:27:02;;;;;;;11.70;2.63;;;23.30;99.90;;;;;;6220418;23;20100;-79
2022/08/22 12:29:46;;;;;;;8.50;2.08;;;23.40;99.90;;;;;;6194337;23;20044;-79
2022/08/22 12:32:15;;;;;;;6.78;2.13;;;23.40;99.90;;;;;;6220262;23;20019;-81
2022/08/22 12:35:05;;;;;;;7.78;1.98;;;23.30;99.90;;;;;;6247335;23;20020;-81
2022/08/22 12:37:42;;;;;;;10.80;2.40;;;23.30;99.90;;;;;;6220204;23;20027;-80
2022/08/22 12:40:28;;;;;;;8.85;2.35;;;23.30;99.90;;;;;;6247021;23;20016;-81
2022/08/22 12:43:22;;;;;;;7.53;1.70;;;23.30;99.90;;;;;;6218293;23;20020;-81
2022/08/22 12:46:11;;;;;;;10.15;1.90;;;23.20;99.90;;;;;;6244863;23;20444;-81
2022/08/22 12:48:56;;;;;;;7.90;1.92;;;23.20;99.90;;;;;;6246934;23;20022;-81
2022/08/22 12:51:34;;;;;;;7.18;1.80;;;23.10;99.90;;;;;;6244440;23;20352;-81
2022/08/22 12:54:30;;;;;;;10.63;2.25;;;23.10;99.90;;;;;;6220073;23;20016;-81
2022/08/22 12:57:20;;;;;;;5.50;1.92;;;23.20;99.90;;;;;;6244748;23;20530;-81
2022/08/22 12:59:48;;;;;;;7.70;1.98;;;23.10;99.90;;;;;;6219736;23;20093;-80
2022/08/22 13:02:31;;;;;;;9.20;2.35;;;23.00;99.90;;;;;;6219858;23;20024;-79
2022/08/22 13:05:12;;;;;;;7.75;1.80;;;23.00;99.90;;;;;;6246096;23;20020;-80
2022/08/22 13:07:41;;;;;;;12.13;2.10;;;22.90;99.90;;;;;;6247175;23;20384;-80
2022/08/22 13:10:12;;;;;;;10.38;2.00;;;22.80;99.90;;;;;;6245948;23;20012;-80
2022/08/22 13:12:44;;;;;;;9.60;1.95;;;22.80;99.90;;;;;;6219877;23;20016;-79
2022/08/22 13:15:30;;;;;;;12.68;2.25;;;22.80;99.90;;;;;;6219441;23;20020;-80
2022/08/22 13:17:59;;;;;;;6.93;2.15;;;22.80;99.90;;;;;;6218830;23;20016;-79
2022/08/22 13:20:33;;;;;;;14.30;2.53;;;22.80;99.90;;;;;;6246935;23;20011;-79
2022/08/22 13:23:04;;;;;;;6.45;2.85;;;22.80;99.90;;;;;;6246194;23;20016;-80
2022/08/22 13:26:01;;;;;;;16.25;3.22;;;22.80;99.90;;;;;;6218233;23;20195;-82
2022/08/22 13:28:30;;;;;;;9.70;2.80;;;22.80;99.90;;;;;;6219727;23;20449;-80
2022/08/22 13:30:58;;;;;;;12.40;2.08;;;22.80;99.90;;;;;;6245238;23;20020;-80
2022/08/22 13:33:33;;;;;;;8.02;2.10;;;22.80;99.90;;;;;;6245880;23;20015;-81
2022/08/22 13:36:07;;;;;;;9.88;2.85;;;22.70;99.90;;;;;;6246001;23;20025;-81
2022/08/22 13:38:43;;;;;;;10.32;2.30;;;22.70;99.90;;;;;;6244878;23;20798;-80
2022/08/22 13:41:09;;;;;;;13.75;2.28;;;22.60;99.90;;;;;;6246422;23;20432;-79
2022/08/22 13:43:52;;;;;;;14.32;2.20;;;22.60;99.90;;;;;;6246275;23;20012;-79
2022/08/22 13:46:24;;;;;;;10.55;2.42;;;22.50;99.90;;;;;;6245005;23;20343;-82
2022/08/22 13:48:54;;;;;;;7.10;1.90;;;22.50;99.90;;;;;;6219185;23;20016;-82
2022/08/22 13:51:38;;;;;;;8.88;2.20;;;22.50;99.90;;;;;;6246411;23;20070;-81
2022/08/22 13:54:10;;;;;;;12.57;2.28;;;22.50;99.90;;;;;;6218216;23;20031;-80
2022/08/22 13:57:09;;;;;;;8.85;1.80;;;22.50;99.90;;;;;;6218974;23;20447;-81
2022/08/22 13:59:47;;;;;;;3.92;1.55;;;22.70;99.90;;;;;;6216918;23;20448;-81
2022/08/22 14:02:43;;;;;;;10.82;2.63;;;22.90;99.90;;;;;;6246658;23;20067;-81